createdAt,value
2023-03-12T00:02:23.276Z,15.17
2023-03-12T00:04:50.428Z,14.93
2023-03-12T00:07:17.668Z,15.30
2023-03-12T00:09:45.807Z,15.10
2023-03-12T00:12:13.063Z,14.87
2023-03-12T00:14:40.218Z,15.53
2023-03-12T00:17:07.351Z,14.83
2023-03-12T00:19:34.486Z,14.83
2023-03-12T00:22:01.661Z,14.93
2023-03-12T00:24:28.850Z,15.00
2023-03-12T00:26:56.004Z,14.23
2023-03-12T00:29:24.233Z,14.70
2023-03-12T00:31:51.859Z,15.40
2023-03-12T00:34:19.089Z,13.30
2023-03-12T00:36:46.224Z,13.83
2023-03-12T00:39:13.437Z,15.53
2023-03-12T00:41:40.582Z,13.87
2023-03-12T00:44:07.686Z,13.37
2023-03-12T00:46:34.805Z,12.53
2023-03-12T00:49:01.926Z,13.13
2023-03-12T00:51:29.217Z,13.17
2023-03-12T00:53:56.437Z,13.17
2023-03-12T00:56:23.548Z,13.53
2023-03-12T00:58:50.717Z,13.43
2023-03-12T01:01:18.189Z,13.80
2023-03-12T01:03:45.348Z,14.00
2023-03-12T01:06:12.567Z,13.90
2023-03-12T01:08:40.142Z,13.70
2023-03-12T01:11:07.246Z,13.77
2023-03-12T01:13:34.380Z,13.23
2023-03-12T01:16:01.528Z,12.53
2023-03-12T01:18:28.728Z,12.40
2023-03-12T01:20:55.830Z,11.80
2023-03-12T01:23:22.950Z,12.67
2023-03-12T01:25:51.880Z,12.73
2023-03-12T01:28:19.317Z,12.47
2023-03-12T01:30:46.399Z,12.57
2023-03-12T01:33:13.567Z,12.80
2023-03-12T01:35:41.417Z,13.53
2023-03-12T01:38:09.045Z,12.87
2023-03-12T01:40:36.740Z,13.67
2023-03-12T01:43:22.437Z,13.23
2023-03-12T01:46:05.270Z,12.83
2023-03-12T01:48:43.802Z,12.77
2023-03-12T01:51:13.031Z,13.33
2023-03-12T01:53:41.192Z,13.93
2023-03-12T01:56:09.374Z,13.80
2023-03-12T01:58:38.080Z,13.87
2023-03-12T02:01:05.297Z,13.33
2023-03-12T02:03:33.654Z,12.47
2023-03-12T02:06:06.761Z,12.77
2023-03-12T02:08:37.783Z,11.77
2023-03-12T02:11:05.008Z,13.07
2023-03-12T02:13:32.204Z,12.83
2023-03-12T02:15:59.375Z,12.67
2023-03-12T02:18:26.464Z,12.13
2023-03-12T02:20:56.559Z,12.83
2023-03-12T02:23:26.779Z,12.87
2023-03-12T02:25:54.159Z,12.67
2023-03-12T02:28:23.705Z,12.37
2023-03-12T02:30:52.062Z,12.43
2023-03-12T02:33:19.697Z,12.70
2023-03-12T02:35:48.131Z,11.93
2023-03-12T02:38:34.201Z,11.70
2023-03-12T02:41:04.470Z,11.37
2023-03-12T02:43:31.746Z,12.20
2023-03-12T02:45:58.886Z,11.83
2023-03-12T02:48:26.073Z,11.87
2023-03-12T02:50:53.242Z,11.87
2023-03-12T02:53:20.395Z,11.63
2023-03-12T02:55:47.508Z,11.77
2023-03-12T02:58:14.611Z,11.90
2023-03-12T03:00:41.722Z,12.00
2023-03-12T03:03:08.920Z,11.20
2023-03-12T03:05:37.253Z,12.07
2023-03-12T03:08:04.685Z,12.07
2023-03-12T03:10:31.961Z,11.60
2023-03-12T03:12:59.231Z,11.20
2023-03-12T03:15:26.500Z,11.30
2023-03-12T03:17:53.690Z,12.67
2023-03-12T03:20:21.355Z,11.67
2023-03-12T03:22:48.480Z,11.30
2023-03-12T03:25:15.918Z,11.60
2023-03-12T03:27:43.114Z,11.60
2023-03-12T03:30:10.728Z,11.67
2023-03-12T03:32:38.822Z,11.80
2023-03-12T03:35:06.302Z,12.33
2023-03-12T03:37:33.430Z,12.00
2023-03-12T03:40:00.672Z,11.47
2023-03-12T03:42:27.795Z,11.70
2023-03-12T03:44:54.896Z,11.57
2023-03-12T03:47:22.690Z,12.00
2023-03-12T03:49:49.853Z,11.90
2023-03-12T03:52:16.983Z,11.70
2023-03-12T03:54:44.119Z,11.93
2023-03-12T03:57:11.298Z,12.47
2023-03-12T03:59:38.390Z,12.00
2023-03-12T04:02:05.589Z,11.47
2023-03-12T04:04:32.788Z,11.50
2023-03-12T04:06:59.929Z,12.20
2023-03-12T04:09:27.154Z,11.77
2023-03-12T04:11:54.283Z,12.57
2023-03-12T04:14:21.361Z,12.07
2023-03-12T04:16:48.465Z,12.20
2023-03-12T04:19:15.590Z,12.00
2023-03-12T04:21:42.682Z,12.50
2023-03-12T04:24:12.811Z,11.37
2023-03-12T04:26:40.021Z,11.17
2023-03-12T04:29:07.218Z,10.90
2023-03-12T04:31:34.732Z,11.43
2023-03-12T04:34:02.019Z,10.63
2023-03-12T04:36:29.221Z,10.87
2023-03-12T04:38:57.301Z,11.03
2023-03-12T04:41:24.423Z,10.77
2023-03-12T04:43:51.560Z,10.30
2023-03-12T04:46:19.102Z,10.83
2023-03-12T04:48:46.216Z,11.53
2023-03-12T04:51:13.308Z,10.70
2023-03-12T04:53:40.637Z,11.37
2023-03-12T04:56:07.911Z,10.90
2023-03-12T04:58:35.905Z,11.10
2023-03-12T05:01:03.030Z,11.23
2023-03-12T05:03:30.228Z,10.70
2023-03-12T05:05:57.424Z,10.67
2023-03-12T05:08:24.549Z,10.03
2023-03-12T05:10:51.667Z,10.73
2023-03-12T05:13:20.629Z,10.63
2023-03-12T05:15:48.888Z,10.20
2023-03-12T05:18:15.985Z,10.57
2023-03-12T05:20:43.214Z,9.77
2023-03-12T05:23:10.346Z,10.27
2023-03-12T05:25:41.539Z,9.97
2023-03-12T05:28:08.892Z,9.87
2023-03-12T05:30:36.232Z,10.00
2023-03-12T05:33:03.375Z,9.70
2023-03-12T05:35:30.555Z,9.93
2023-03-12T05:37:57.713Z,10.20
2023-03-12T05:40:24.870Z,10.07
2023-03-12T05:42:51.996Z,9.17
2023-03-12T05:45:19.836Z,10.30
2023-03-12T05:47:46.947Z,10.07
2023-03-12T05:50:16.302Z,9.90
2023-03-12T05:52:43.416Z,9.50
2023-03-12T05:55:10.726Z,9.60
2023-03-12T05:57:37.870Z,10.87
2023-03-12T06:00:05.804Z,9.37
2023-03-12T06:02:32.980Z,9.30
2023-03-12T06:05:00.182Z,9.30
2023-03-12T06:07:27.322Z,9.87
2023-03-12T06:09:54.472Z,9.10
2023-03-12T06:12:21.589Z,9.70
2023-03-12T06:14:48.676Z,9.27
2023-03-12T06:17:15.786Z,9.07
2023-03-12T06:19:43.923Z,8.53
2023-03-12T06:22:11.039Z,9.63
2023-03-12T06:24:38.147Z,8.90
2023-03-12T06:27:05.293Z,9.40
2023-03-12T06:29:32.430Z,8.13
2023-03-12T06:31:59.577Z,8.23
2023-03-12T06:34:27.301Z,8.37
2023-03-12T06:36:54.427Z,8.23
2023-03-12T06:39:21.556Z,8.33
2023-03-12T06:41:48.728Z,8.33
2023-03-12T06:44:15.901Z,7.97
2023-03-12T06:46:44.386Z,8.43
2023-03-12T06:49:12.246Z,8.87
2023-03-12T06:51:39.625Z,9.10
2023-03-12T06:54:06.928Z,8.90
2023-03-12T06:56:34.231Z,8.87
2023-03-12T06:59:01.415Z,8.97
2023-03-12T07:01:28.642Z,9.40
2023-03-12T07:03:55.851Z,8.53
2023-03-12T07:06:24.048Z,8.27
2023-03-12T07:08:51.555Z,7.87
2023-03-12T07:11:19.090Z,7.70
2023-03-12T07:13:46.199Z,7.80
2023-03-12T07:16:13.370Z,7.97
2023-03-12T07:18:40.687Z,9.10
2023-03-12T07:21:07.783Z,7.53
2023-03-12T07:23:34.976Z,8.20
2023-03-12T07:26:02.136Z,7.97
2023-03-12T07:28:29.252Z,7.60
2023-03-12T07:31:00.588Z,8.47
2023-03-12T07:33:27.921Z,7.53
2023-03-12T07:35:55.138Z,8.23
2023-03-12T07:38:22.330Z,7.40
2023-03-12T07:40:52.795Z,7.47
2023-03-12T07:43:21.708Z,7.67
2023-03-12T07:45:49.682Z,8.07
2023-03-12T07:48:17.466Z,6.83
2023-03-12T07:50:44.594Z,6.57
2023-03-12T07:53:11.918Z,6.73
2023-03-12T07:55:39.242Z,7.03
2023-03-12T07:58:06.642Z,6.50
2023-03-12T08:00:33.887Z,6.97
2023-03-12T08:03:01.278Z,6.80
2023-03-12T08:05:28.591Z,7.33
2023-03-12T08:07:55.777Z,8.30
2023-03-12T08:10:23.239Z,17.53
2023-03-12T08:12:50.468Z,7.23
2023-03-12T08:15:17.893Z,6.83
2023-03-12T08:17:45.353Z,6.60
2023-03-12T08:20:13.111Z,6.47
2023-03-12T08:22:40.848Z,6.60
2023-03-12T08:25:08.806Z,6.83
2023-03-12T08:27:36.142Z,6.47
2023-03-12T08:30:03.998Z,6.63
2023-03-12T08:32:31.277Z,6.83
2023-03-12T08:34:58.542Z,6.97
2023-03-12T08:37:25.622Z,7.37
2023-03-12T08:39:52.712Z,6.97
2023-03-12T08:42:19.820Z,6.77
2023-03-12T08:44:46.962Z,7.30
2023-03-12T08:47:14.166Z,6.73
2023-03-12T08:49:41.304Z,6.40
2023-03-12T08:52:08.413Z,6.13
2023-03-12T08:54:35.676Z,5.80
2023-03-12T08:57:03.026Z,5.87
2023-03-12T08:59:30.173Z,6.40
2023-03-12T09:01:57.365Z,6.23
2023-03-12T09:04:24.694Z,7.80
2023-03-12T09:06:51.863Z,7.33
2023-03-12T09:09:18.970Z,6.13
2023-03-12T09:11:46.132Z,6.30
2023-03-12T09:15:01.497Z,6.00
2023-03-12T09:17:00.504Z,6.40
2023-03-12T09:19:27.658Z,6.33
2023-03-12T09:21:54.901Z,6.00
2023-03-12T09:24:22.137Z,5.93
2023-03-12T09:26:49.226Z,5.70
2023-03-12T09:29:16.354Z,5.97
2023-03-12T09:31:43.508Z,6.50
2023-03-12T09:34:10.605Z,5.27
2023-03-12T09:36:37.720Z,4.90
2023-03-12T09:39:05.094Z,5.30
2023-03-12T09:41:34.997Z,5.20
2023-03-12T09:44:04.934Z,4.00
2023-03-12T09:46:41.480Z,4.20
2023-03-12T09:49:15.120Z,5.27
2023-03-12T09:51:44.732Z,6.20
2023-03-12T09:54:22.388Z,9.20
2023-03-12T09:56:51.015Z,7.33
2023-03-12T09:59:18.280Z,6.60
2023-03-12T10:01:51.277Z,6.50
2023-03-12T10:04:18.620Z,5.80
2023-03-12T10:06:59.027Z,5.37
2023-03-12T10:09:26.179Z,6.20
2023-03-12T10:12:00.774Z,6.70
2023-03-12T10:14:33.848Z,5.67
2023-03-12T10:17:19.827Z,6.03
2023-03-12T10:20:07.812Z,4.80
2023-03-12T10:22:51.343Z,5.47
2023-03-12T10:25:18.452Z,5.37
2023-03-12T10:27:45.557Z,5.13
2023-03-12T10:30:24.039Z,4.90
2023-03-12T10:32:59.608Z,5.17
2023-03-12T10:35:28.463Z,5.10
2023-03-12T10:37:59.844Z,7.23
2023-03-12T10:40:31.432Z,7.70
2023-03-12T10:42:58.557Z,7.07
2023-03-12T10:45:35.333Z,7.63
2023-03-12T10:48:08.701Z,8.13
2023-03-12T10:50:37.092Z,7.73
2023-03-12T10:53:27.872Z,7.47
2023-03-12T10:55:59.756Z,9.80
2023-03-12T10:58:26.999Z,10.20
2023-03-12T11:00:58.164Z,9.93
2023-03-12T11:03:26.585Z,7.87
2023-03-12T11:05:55.142Z,8.43
2023-03-12T11:08:29.816Z,8.17
2023-03-12T11:10:58.216Z,8.37
2023-03-12T11:13:29.670Z,7.53
2023-03-12T11:16:17.156Z,7.47
2023-03-12T11:19:01.536Z,7.70
2023-03-12T11:21:29.289Z,7.60
2023-03-12T11:23:59.464Z,8.13
2023-03-12T11:26:31.955Z,8.47
2023-03-12T11:29:14.549Z,7.77
2023-03-12T11:32:02.032Z,7.53
2023-03-12T11:34:30.890Z,7.93
2023-03-12T11:37:11.842Z,7.93
2023-03-12T11:39:57.926Z,7.03
2023-03-12T11:42:27.889Z,6.30
2023-03-12T11:45:05.579Z,6.80
2023-03-12T11:47:37.970Z,6.50
2023-03-12T11:50:14.324Z,7.07
2023-03-12T11:52:48.748Z,6.83
2023-03-12T11:55:25.183Z,6.40
2023-03-12T11:57:58.534Z,6.40
2023-03-12T12:00:40.459Z,6.27
2023-03-12T12:03:19.474Z,6.27
2023-03-12T12:06:07.217Z,6.53
2023-03-12T12:08:53.929Z,6.13
2023-03-12T12:11:24.040Z,6.10
2023-03-12T12:14:11.717Z,6.10
2023-03-12T12:16:57.827Z,6.50
2023-03-12T12:19:43.274Z,5.73
2023-03-12T12:22:33.684Z,5.07
2023-03-12T12:25:13.073Z,5.63
2023-03-12T12:27:59.141Z,6.13
2023-03-12T12:30:49.617Z,6.10
2023-03-12T12:33:16.711Z,5.47
2023-03-12T12:35:44.008Z,5.20
2023-03-12T12:38:11.106Z,5.50
2023-03-12T12:40:41.835Z,5.57
2023-03-12T12:43:32.144Z,4.90
2023-03-12T12:46:19.549Z,5.03
2023-03-12T12:48:52.229Z,4.57
2023-03-12T12:51:21.939Z,5.30
2023-03-12T12:54:01.354Z,4.50
2023-03-12T12:56:42.218Z,4.43
2023-03-12T12:59:15.374Z,4.97
2023-03-12T13:01:42.802Z,4.67
2023-03-12T13:04:16.414Z,4.83
2023-03-12T13:07:03.240Z,4.57
2023-03-12T13:09:41.642Z,4.53
2023-03-12T13:12:13.626Z,4.20
2023-03-12T13:14:42.085Z,4.20
2023-03-12T13:17:20.836Z,4.10
2023-03-12T13:19:55.797Z,3.80
2023-03-12T13:22:27.905Z,4.10
2023-03-12T13:25:13.168Z,3.63
2023-03-12T13:27:41.197Z,3.80
2023-03-12T13:30:27.150Z,3.80
2023-03-12T13:32:57.476Z,3.50
2023-03-12T13:35:24.673Z,3.30
2023-03-12T13:37:51.847Z,3.60
2023-03-12T13:40:31.319Z,3.70
2023-03-12T13:43:16.617Z,3.27
2023-03-12T13:46:01.334Z,3.50
2023-03-12T13:48:28.723Z,3.40
2023-03-12T13:50:57.748Z,3.50
2023-03-12T13:53:40.491Z,3.63
2023-03-12T13:56:10.960Z,3.50
2023-03-12T13:58:56.657Z,3.53
2023-03-12T14:01:27.573Z,3.07
2023-03-12T14:03:57.077Z,3.37
2023-03-12T14:06:25.351Z,3.53
2023-03-12T14:09:24.054Z,3.50
2023-03-12T14:11:57.802Z,2.87
2023-03-12T14:14:25.013Z,3.10
2023-03-12T14:16:53.423Z,3.43
2023-03-12T14:19:24.216Z,2.73
2023-03-12T14:21:52.224Z,3.40
2023-03-12T14:24:28.629Z,3.40
2023-03-12T14:26:56.523Z,3.00
2023-03-12T14:29:29.700Z,3.17
2023-03-12T14:31:58.346Z,3.13
2023-03-12T14:34:27.920Z,3.13
2023-03-12T14:37:09.877Z,3.93
2023-03-12T14:39:50.727Z,3.60
2023-03-12T14:42:25.914Z,3.90
2023-03-12T14:45:01.161Z,3.10
2023-03-12T14:47:28.657Z,3.00
2023-03-12T14:49:57.579Z,3.20
2023-03-12T14:52:26.745Z,3.50
2023-03-12T14:54:56.646Z,2.80
2023-03-12T14:57:24.833Z,3.20
2023-03-12T15:00:16.194Z,3.20
2023-03-12T15:02:43.895Z,3.00
2023-03-12T15:05:16.059Z,2.70
2023-03-12T15:07:43.277Z,2.77
2023-03-12T15:10:27.414Z,2.97
2023-03-12T15:12:56.021Z,3.07
2023-03-12T15:15:30.299Z,2.90
2023-03-12T15:17:57.925Z,2.50
2023-03-12T15:20:26.577Z,2.43
2023-03-12T15:22:54.289Z,2.70
2023-03-12T15:25:24.201Z,2.53
2023-03-12T15:28:01.382Z,2.47
2023-03-12T15:30:29.114Z,2.40
2023-03-12T15:33:05.362Z,2.60
2023-03-12T15:35:32.775Z,3.00
2023-03-12T15:38:00.206Z,3.13
2023-03-12T15:40:28.441Z,3.07
2023-03-12T15:42:59.175Z,2.73
2023-03-12T15:45:36.189Z,3.40
2023-03-12T15:48:04.362Z,3.27
2023-03-12T15:50:41.152Z,3.13
2023-03-12T15:53:14.273Z,3.30
2023-03-12T15:55:44.571Z,3.70
2023-03-12T15:58:25.462Z,3.33
2023-03-12T16:00:53.118Z,3.40
2023-03-12T16:03:21.338Z,3.10
2023-03-12T16:05:50.290Z,3.13
2023-03-12T16:08:26.602Z,3.33
2023-03-12T16:10:53.876Z,3.00
2023-03-12T16:13:22.092Z,3.20
2023-03-12T16:15:49.246Z,3.50
2023-03-12T16:18:17.373Z,3.97
2023-03-12T16:20:44.799Z,4.47
2023-03-12T16:23:12.032Z,4.27
2023-03-12T16:25:39.736Z,4.53
2023-03-12T16:28:07.206Z,4.97
2023-03-12T16:30:35.776Z,4.90
2023-03-12T16:33:06.025Z,5.37
2023-03-12T16:35:35.420Z,5.47
2023-03-12T16:38:02.631Z,6.03
2023-03-12T16:40:34.074Z,6.37
2023-03-12T16:43:03.605Z,5.50
2023-03-12T16:45:31.910Z,5.77
2023-03-12T16:48:00.721Z,5.57
2023-03-12T16:50:27.956Z,6.07
2023-03-12T16:52:55.546Z,6.57
2023-03-12T16:55:24.198Z,6.00
2023-03-12T16:57:52.819Z,6.47
2023-03-12T17:00:21.142Z,6.30
2023-03-12T17:02:48.801Z,6.13
2023-03-12T17:05:16.259Z,5.90
2023-03-12T17:07:43.339Z,5.77
2023-03-12T17:10:11.109Z,6.07
2023-03-12T17:12:40.147Z,5.73
2023-03-12T17:15:25.771Z,5.93
2023-03-12T17:17:55.573Z,5.63
2023-03-12T17:20:23.893Z,5.20
2023-03-12T17:22:51.222Z,4.80
2023-03-12T17:25:23.427Z,5.60
2023-03-12T17:27:51.074Z,5.17
2023-03-12T17:30:18.837Z,5.90
2023-03-12T17:32:46.093Z,5.40
2023-03-12T17:35:13.318Z,5.70
2023-03-12T17:37:40.552Z,5.43
2023-03-12T17:40:09.441Z,5.77
2023-03-12T17:42:37.037Z,9.57
2023-03-12T17:45:08.647Z,4.50
2023-03-12T17:47:36.288Z,4.53
2023-03-12T17:50:04.186Z,5.00
2023-03-12T17:52:32.099Z,4.73
2023-03-12T17:55:00.458Z,4.20
2023-03-12T17:57:28.215Z,4.60
2023-03-12T17:59:55.341Z,4.10
2023-03-12T18:02:22.552Z,3.97
2023-03-12T18:04:49.815Z,3.73
2023-03-12T18:07:16.988Z,4.07
2023-03-12T18:09:44.145Z,3.60
2023-03-12T18:12:12.361Z,3.77
2023-03-12T18:14:39.480Z,3.93
2023-03-12T18:17:06.626Z,3.80
2023-03-12T18:19:35.454Z,3.97
2023-03-12T18:22:02.843Z,3.50
2023-03-12T18:24:30.139Z,3.33
2023-03-12T18:26:59.246Z,3.40
2023-03-12T18:29:26.599Z,3.07
2023-03-12T18:31:54.014Z,4.40
2023-03-12T18:34:23.290Z,4.27
2023-03-12T18:36:50.467Z,3.70
2023-03-12T18:39:17.547Z,3.80
2023-03-12T18:41:44.694Z,3.63
2023-03-12T18:44:13.143Z,3.50
2023-03-12T18:46:40.352Z,3.80
2023-03-12T18:49:08.793Z,3.47
2023-03-12T18:51:35.996Z,4.20
2023-03-12T18:54:03.341Z,3.47
2023-03-12T18:56:30.572Z,3.50
2023-03-12T18:58:57.838Z,3.60
2023-03-12T19:01:26.151Z,3.27
2023-03-12T19:03:53.322Z,3.43
2023-03-12T19:06:20.547Z,3.53
2023-03-12T19:08:47.720Z,2.93
2023-03-12T19:11:15.884Z,3.50
2023-03-12T19:13:43.129Z,4.10
2023-03-12T19:16:11.475Z,3.10
2023-03-12T19:18:39.121Z,3.53
2023-03-12T19:21:09.410Z,3.43
2023-03-12T19:23:36.659Z,3.50
2023-03-12T19:26:04.233Z,3.40
2023-03-12T19:28:31.435Z,3.23
2023-03-12T19:31:06.072Z,3.20
2023-03-12T19:33:33.424Z,3.57
2023-03-12T19:36:00.699Z,4.27
2023-03-12T19:38:28.191Z,4.03
2023-03-12T19:40:56.089Z,3.33
2023-03-12T19:43:23.447Z,3.40
2023-03-12T19:45:50.633Z,3.70
2023-03-12T19:48:17.781Z,3.87
2023-03-12T19:50:45.261Z,3.03
2023-03-12T19:53:12.876Z,3.23
2023-03-12T19:55:40.117Z,3.33
2023-03-12T19:58:08.394Z,3.63
2023-03-12T20:00:35.605Z,3.27
2023-03-12T20:03:04.980Z,3.50
2023-03-12T20:05:32.208Z,3.47
2023-03-12T20:07:59.365Z,3.20
2023-03-12T20:10:27.750Z,3.17
2023-03-12T20:12:54.825Z,3.40
2023-03-12T20:15:21.955Z,3.90
2023-03-12T20:17:49.120Z,3.67
2023-03-12T20:20:16.729Z,3.83
2023-03-12T20:22:43.860Z,3.70
2023-03-12T20:25:11.277Z,3.47
2023-03-12T20:27:38.645Z,3.77
2023-03-12T20:30:06.247Z,3.37
2023-03-12T20:32:33.626Z,4.03
2023-03-12T20:35:00.837Z,3.30
2023-03-12T20:37:28.042Z,3.70
2023-03-12T20:39:55.276Z,3.70
2023-03-12T20:42:22.411Z,2.90
2023-03-12T20:44:49.595Z,3.50
2023-03-12T20:47:16.737Z,3.33
2023-03-12T20:49:43.853Z,3.30
2023-03-12T20:52:10.947Z,3.63
2023-03-12T20:54:38.157Z,4.20
2023-03-12T20:57:05.283Z,3.90
2023-03-12T20:59:32.430Z,3.57
2023-03-12T21:01:59.591Z,3.30
2023-03-12T21:04:26.775Z,3.90
2023-03-12T21:06:55.830Z,3.50
2023-03-12T21:09:23.493Z,3.67
2023-03-12T21:11:50.995Z,3.60
2023-03-12T21:14:18.106Z,4.17
2023-03-12T21:16:45.306Z,20.10
2023-03-12T21:19:12.461Z,6.50
2023-03-12T21:21:39.638Z,6.37
2023-03-12T21:24:06.841Z,4.00
2023-03-12T21:26:33.974Z,3.97
2023-03-12T21:29:01.175Z,3.00
2023-03-12T21:31:28.354Z,7.73
2023-03-12T21:33:56.165Z,5.40
2023-03-12T21:36:23.296Z,4.57
2023-03-12T21:38:51.780Z,4.00
2023-03-12T21:41:20.142Z,4.10
2023-03-12T21:43:47.632Z,3.57
2023-03-12T21:46:16.525Z,4.10
2023-03-12T21:48:44.955Z,4.10
2023-03-12T21:51:12.996Z,4.87
2023-03-12T21:53:40.124Z,7.03
2023-03-12T21:56:08.168Z,5.27
2023-03-12T21:58:35.660Z,4.37
2023-03-12T22:01:07.001Z,4.57
2023-03-12T22:03:34.750Z,5.10
2023-03-12T22:06:01.950Z,5.57
2023-03-12T22:08:29.234Z,5.63
2023-03-12T22:10:56.406Z,5.17
2023-03-12T22:13:23.929Z,4.90
2023-03-12T22:15:55.344Z,5.03
2023-03-12T22:18:22.975Z,3.60
2023-03-12T22:20:53.579Z,4.70
2023-03-12T22:23:21.438Z,4.23
2023-03-12T22:25:48.776Z,4.50
2023-03-12T22:28:16.408Z,3.77
2023-03-12T22:30:43.975Z,4.97
2023-03-12T22:33:11.187Z,4.97
2023-03-12T22:35:48.095Z,3.93
2023-03-12T22:38:15.302Z,4.77
2023-03-12T22:40:42.538Z,4.10
2023-03-12T22:43:09.799Z,4.37
2023-03-12T22:45:37.159Z,4.07
2023-03-12T22:48:04.392Z,4.60
2023-03-12T22:50:31.629Z,4.63
2023-03-12T22:52:59.324Z,4.23
2023-03-12T22:55:26.760Z,4.77
2023-03-12T22:57:53.912Z,3.77
2023-03-12T23:00:26.596Z,4.23
2023-03-12T23:02:53.831Z,4.47
2023-03-12T23:05:20.999Z,4.30
2023-03-12T23:07:48.234Z,4.10
2023-03-12T23:10:15.343Z,4.40
2023-03-12T23:12:42.513Z,4.57
2023-03-12T23:15:09.936Z,3.80
2023-03-12T23:17:37.082Z,4.67
2023-03-12T23:20:05.349Z,4.67
2023-03-12T23:22:33.651Z,3.67
2023-03-12T23:25:00.815Z,3.57
2023-03-12T23:27:27.985Z,4.70
2023-03-12T23:29:55.126Z,5.57
2023-03-12T23:32:22.370Z,5.10
2023-03-12T23:34:49.506Z,6.27
2023-03-12T23:37:16.706Z,3.80
2023-03-12T23:39:54.073Z,3.70
2023-03-12T23:42:21.757Z,4.97
2023-03-12T23:44:48.892Z,3.93
2023-03-12T23:47:15.989Z,3.70
2023-03-12T23:49:43.133Z,4.70
2023-03-12T23:52:10.344Z,4.40
2023-03-12T23:54:37.452Z,3.40
2023-03-12T23:57:04.641Z,3.57
2023-03-12T23:59:31.844Z,3.87
